createdAt,value
2023-03-26T00:00:41.153Z,74.70
2023-03-26T00:01:41.155Z,74.19
2023-03-26T00:02:41.305Z,74.29
2023-03-26T00:03:41.096Z,74.19
2023-03-26T00:04:41.142Z,74.39
2023-03-26T00:05:41.122Z,75.11
2023-03-26T00:06:41.106Z,75.11
2023-03-26T00:07:41.057Z,75.01
2023-03-26T00:08:41.049Z,75.21
2023-03-26T00:09:41.056Z,75.21
2023-03-26T00:10:41.054Z,75.52
2023-03-26T00:11:41.034Z,76.34
2023-03-26T00:12:41.020Z,76.03
2023-03-26T00:13:41.021Z,76.03
2023-03-26T00:14:40.983Z,75.62
2023-03-26T00:15:40.969Z,76.44
2023-03-26T00:16:41.024Z,76.54
2023-03-26T00:17:41.002Z,76.44
2023-03-26T00:18:40.937Z,76.75
2023-03-26T00:19:40.940Z,77.06
2023-03-26T00:20:40.934Z,76.85
2023-03-26T00:21:40.904Z,76.95
2023-03-26T00:22:40.943Z,76.85
2023-03-26T00:23:40.892Z,76.65
2023-03-26T00:24:40.877Z,77.98
2023-03-26T00:25:40.868Z,77.67
2023-03-26T00:26:40.858Z,77.57
2023-03-26T00:27:40.870Z,77.77
2023-03-26T00:28:40.859Z,77.77
2023-03-26T00:29:40.822Z,77.77
2023-03-26T00:30:40.873Z,77.77
2023-03-26T00:31:40.797Z,78.19
2023-03-26T00:32:40.818Z,78.39
2023-03-26T00:33:40.899Z,78.28
2023-03-26T00:34:40.794Z,78.19
2023-03-26T00:35:40.781Z,78.19
2023-03-26T00:36:40.771Z,78.08
2023-03-26T00:37:40.741Z,78.08
2023-03-26T00:38:40.730Z,77.98
2023-03-26T00:39:40.740Z,78.28
2023-03-26T00:40:40.734Z,78.28
2023-03-26T00:41:40.704Z,78.08
2023-03-26T00:42:40.803Z,78.39
2023-03-26T00:43:40.685Z,78.59
2023-03-26T00:44:40.664Z,78.59
2023-03-26T00:45:40.654Z,78.74
2023-03-26T00:46:40.847Z,78.42
2023-03-26T00:47:40.665Z,78.63
2023-03-26T00:48:44.915Z,78.63
2023-03-26T00:49:40.625Z,78.83
2023-03-26T00:50:40.599Z,78.74
2023-03-26T00:51:40.586Z,79.35
2023-03-26T00:52:40.600Z,79.66
2023-03-26T00:53:40.569Z,78.94
2023-03-26T00:54:40.573Z,79.14
2023-03-26T00:55:40.582Z,79.24
2023-03-26T00:56:40.557Z,79.35
2023-03-26T00:57:40.612Z,79.14
2023-03-26T00:58:40.551Z,79.21
2023-03-26T00:59:40.528Z,79.35
2023-03-26T01:00:40.522Z,79.82
2023-03-26T01:01:40.567Z,79.96
2023-03-26T01:02:40.519Z,78.94
2023-03-26T01:03:40.599Z,79.35
2023-03-26T01:04:40.645Z,79.66
2023-03-26T01:05:40.444Z,79.66
2023-03-26T01:06:40.445Z,79.45
2023-03-26T01:07:40.416Z,79.86
2023-03-26T01:08:40.425Z,79.75
2023-03-26T01:09:40.393Z,80.13
2023-03-26T01:10:40.409Z,80.17
2023-03-26T01:11:40.378Z,79.75
2023-03-26T01:12:40.398Z,79.75
2023-03-26T01:13:40.347Z,79.75
2023-03-26T01:14:40.357Z,79.96
2023-03-26T01:15:40.339Z,79.86
2023-03-26T01:16:40.343Z,80.37
2023-03-26T01:17:40.315Z,80.21
2023-03-26T01:18:40.317Z,80.31
2023-03-26T01:19:40.318Z,80.10
2023-03-26T01:20:40.273Z,80.62
2023-03-26T01:21:40.269Z,81.02
2023-03-26T01:22:40.260Z,80.92
2023-03-26T01:23:40.247Z,81.02
2023-03-26T01:24:40.264Z,81.57
2023-03-26T01:25:40.248Z,81.48
2023-03-26T01:26:40.210Z,81.68
2023-03-26T01:27:40.213Z,81.85
2023-03-26T01:28:40.208Z,81.68
2023-03-26T01:29:40.173Z,81.99
2023-03-26T01:30:40.163Z,82.23
2023-03-26T01:31:40.160Z,82.33
2023-03-26T01:32:40.279Z,82.75
2023-03-26T01:33:40.349Z,82.64
2023-03-26T01:34:40.185Z,82.64
2023-03-26T01:35:40.239Z,82.75
2023-03-26T01:36:40.101Z,82.75
2023-03-26T01:37:40.099Z,82.78
2023-03-26T01:38:40.104Z,83.15
2023-03-26T01:39:40.074Z,83.77
2023-03-26T01:40:40.099Z,83.05
2023-03-26T01:41:40.057Z,83.40
2023-03-26T01:42:40.035Z,83.19
2023-03-26T01:43:40.036Z,83.50
2023-03-26T01:44:40.025Z,83.40
2023-03-26T01:45:40.016Z,83.50
2023-03-26T01:46:40.090Z,84.22
2023-03-26T01:47:40.014Z,84.53
2023-03-26T01:48:39.977Z,84.32
2023-03-26T01:49:39.969Z,84.05
2023-03-26T01:50:39.955Z,84.32
2023-03-26T01:51:39.952Z,84.26
2023-03-26T01:52:39.949Z,84.05
2023-03-26T01:53:39.933Z,84.05
2023-03-26T01:54:39.913Z,84.26
2023-03-26T01:55:39.926Z,84.26
2023-03-26T01:56:39.927Z,83.85
2023-03-26T01:57:39.883Z,84.36
2023-03-26T01:58:39.911Z,84.16
2023-03-26T01:59:39.858Z,84.56
2023-03-26T02:00:39.850Z,84.56
2023-03-26T02:01:39.955Z,84.61
2023-03-26T02:02:40.042Z,84.61
2023-03-26T02:03:39.864Z,84.61
2023-03-26T02:04:39.835Z,84.40
2023-03-26T02:05:39.806Z,84.20
2023-03-26T02:06:39.785Z,84.16
2023-03-26T02:07:39.830Z,84.36
2023-03-26T02:08:39.769Z,84.26
2023-03-26T02:09:39.758Z,84.16
2023-03-26T02:10:39.780Z,84.56
2023-03-26T02:11:39.732Z,84.56
2023-03-26T02:12:39.744Z,84.56
2023-03-26T02:13:39.705Z,84.36
2023-03-26T02:14:39.692Z,84.22
2023-03-26T02:15:39.699Z,84.53
2023-03-26T02:16:39.730Z,84.01
2023-03-26T02:17:39.691Z,84.63
2023-03-26T02:18:39.663Z,83.70
2023-03-26T02:19:39.656Z,84.32
2023-03-26T02:20:39.630Z,84.63
2023-03-26T02:21:39.631Z,84.63
2023-03-26T02:22:39.622Z,84.12
2023-03-26T02:23:39.602Z,84.22
2023-03-26T02:24:39.588Z,83.70
2023-03-26T02:25:39.590Z,84.53
2023-03-26T02:26:39.589Z,84.22
2023-03-26T02:27:39.597Z,84.53
2023-03-26T02:28:39.551Z,84.42
2023-03-26T02:29:39.530Z,84.28
2023-03-26T02:30:39.543Z,83.87
2023-03-26T02:31:39.537Z,83.61
2023-03-26T02:32:39.549Z,83.46
2023-03-26T02:33:39.518Z,84.28
2023-03-26T02:34:39.471Z,84.42
2023-03-26T02:35:39.562Z,84.49
2023-03-26T02:36:39.578Z,83.26
2023-03-26T02:37:39.439Z,83.67
2023-03-26T02:38:39.434Z,83.46
2023-03-26T02:39:39.443Z,83.77
2023-03-26T02:40:39.402Z,83.77
2023-03-26T02:41:39.430Z,83.46
2023-03-26T02:42:39.387Z,83.36
2023-03-26T02:43:39.380Z,83.67
2023-03-26T02:44:39.380Z,84.49
2023-03-26T02:45:39.427Z,84.59
2023-03-26T02:46:39.361Z,84.18
2023-03-26T02:47:39.377Z,84.39
2023-03-26T02:48:39.335Z,84.39
2023-03-26T02:49:39.346Z,83.77
2023-03-26T02:50:39.308Z,83.67
2023-03-26T02:51:39.311Z,84.49
2023-03-26T02:52:39.281Z,84.59
2023-03-26T02:53:39.292Z,84.49
2023-03-26T02:54:39.255Z,84.39
2023-03-26T02:55:39.277Z,84.39
2023-03-26T02:56:39.277Z,84.49
2023-03-26T02:57:39.260Z,83.98
2023-03-26T02:58:39.207Z,84.59
2023-03-26T02:59:39.234Z,84.39
2023-03-26T03:00:39.221Z,83.98
2023-03-26T03:01:39.201Z,84.25
2023-03-26T03:02:39.246Z,84.45
2023-03-26T03:03:39.213Z,84.04
2023-03-26T03:04:39.164Z,84.39
2023-03-26T03:05:39.166Z,84.14
2023-03-26T03:06:39.142Z,84.25
2023-03-26T03:07:39.121Z,84.14
2023-03-26T03:08:39.115Z,84.55
2023-03-26T03:09:39.111Z,84.59
2023-03-26T03:10:39.102Z,83.32
2023-03-26T03:11:39.074Z,83.63
2023-03-26T03:12:39.062Z,83.63
2023-03-26T03:13:39.051Z,83.63
2023-03-26T03:14:39.038Z,83.73
2023-03-26T03:15:39.062Z,84.45
2023-03-26T03:16:39.141Z,84.25
2023-03-26T03:17:39.040Z,84.25
2023-03-26T03:18:39.020Z,84.25
2023-03-26T03:19:39.014Z,84.25
2023-03-26T03:20:38.982Z,83.94
2023-03-26T03:21:38.990Z,84.25
2023-03-26T03:22:39.005Z,84.34
2023-03-26T03:23:38.945Z,84.55
2023-03-26T03:24:38.955Z,84.25
2023-03-26T03:25:38.928Z,83.63
2023-03-26T03:26:38.962Z,84.34
2023-03-26T03:27:38.923Z,83.73
2023-03-26T03:28:38.896Z,83.53
2023-03-26T03:29:38.884Z,83.63
2023-03-26T03:30:38.904Z,83.69
2023-03-26T03:31:38.884Z,83.73
2023-03-26T03:32:38.907Z,83.73
2023-03-26T03:33:38.859Z,83.18
2023-03-26T03:34:38.872Z,83.32
2023-03-26T03:35:38.862Z,83.28
2023-03-26T03:36:38.834Z,83.42
2023-03-26T03:37:38.801Z,83.39
2023-03-26T03:38:38.792Z,83.49
2023-03-26T03:39:38.807Z,83.39
2023-03-26T03:40:38.766Z,84.14
2023-03-26T03:41:38.798Z,83.90
2023-03-26T03:42:38.747Z,83.90
2023-03-26T03:43:38.746Z,84.20
2023-03-26T03:44:38.723Z,84.41
2023-03-26T03:45:38.744Z,84.92
2023-03-26T03:46:38.786Z,85.23
2023-03-26T03:47:38.728Z,85.06
2023-03-26T03:48:38.703Z,85.85
2023-03-26T03:49:38.683Z,86.09
2023-03-26T03:50:38.689Z,85.68
2023-03-26T03:51:38.707Z,85.58
2023-03-26T03:52:38.647Z,86.09
2023-03-26T03:53:38.652Z,86.09
2023-03-26T03:54:38.613Z,86.50
2023-03-26T03:55:38.609Z,86.50
2023-03-26T03:56:38.609Z,86.87
2023-03-26T03:57:38.613Z,87.32
2023-03-26T03:58:38.570Z,86.81
2023-03-26T03:59:38.604Z,87.53
2023-03-26T04:00:39.553Z,87.12
2023-03-26T04:01:38.555Z,87.53
2023-03-26T04:02:38.663Z,87.63
2023-03-26T04:03:38.806Z,87.22
2023-03-26T04:04:38.572Z,87.53
2023-03-26T04:05:38.505Z,88.24
2023-03-26T04:06:38.484Z,88.14
2023-03-26T04:07:38.494Z,87.53
2023-03-26T04:08:38.499Z,87.94
2023-03-26T04:09:38.454Z,88.04
2023-03-26T04:10:38.447Z,88.35
2023-03-26T04:11:38.443Z,87.84
2023-03-26T04:12:38.432Z,88.14
2023-03-26T04:13:38.409Z,88.24
2023-03-26T04:14:38.432Z,88.24
2023-03-26T04:15:38.468Z,88.80
2023-03-26T04:16:38.389Z,89.17
2023-03-26T04:17:38.419Z,89.52
2023-03-26T04:18:38.399Z,88.96
2023-03-26T04:19:38.352Z,89.21
2023-03-26T04:20:38.390Z,88.70
2023-03-26T04:21:38.329Z,89.11
2023-03-26T04:22:38.332Z,89.11
2023-03-26T04:23:38.326Z,89.01
2023-03-26T04:24:38.346Z,89.72
2023-03-26T04:25:38.288Z,90.24
2023-03-26T04:26:38.313Z,90.14
2023-03-26T04:27:38.285Z,90.08
2023-03-26T04:28:38.255Z,91.10
2023-03-26T04:29:38.272Z,90.95
2023-03-26T04:30:38.239Z,90.89
2023-03-26T04:31:38.329Z,90.55
2023-03-26T04:32:38.331Z,90.69
2023-03-26T04:33:38.199Z,91.57
2023-03-26T04:34:38.203Z,91.61
2023-03-26T04:35:38.254Z,92.03
2023-03-26T04:36:38.185Z,92.74
2023-03-26T04:37:38.157Z,92.44
2023-03-26T04:38:38.172Z,92.44
2023-03-26T04:39:38.136Z,92.85
2023-03-26T04:40:38.140Z,93.16
2023-03-26T04:41:38.113Z,92.54
2023-03-26T04:42:38.105Z,92.74
2023-03-26T04:43:38.095Z,92.64
2023-03-26T04:44:38.128Z,92.74
2023-03-26T04:45:38.075Z,92.74
2023-03-26T04:46:38.114Z,92.74
2023-03-26T04:47:38.064Z,92.74
2023-03-26T04:48:38.054Z,92.54
2023-03-26T04:49:38.029Z,92.64
2023-03-26T04:50:38.036Z,92.74
2023-03-26T04:51:38.012Z,92.64
2023-03-26T04:52:38.150Z,92.64
2023-03-26T04:53:37.984Z,92.54
2023-03-26T04:54:37.993Z,92.64
2023-03-26T04:55:37.966Z,92.64
2023-03-26T04:56:38.058Z,92.54
2023-03-26T04:57:37.962Z,92.95
2023-03-26T04:58:37.956Z,93.16
2023-03-26T04:59:37.935Z,93.05
2023-03-26T05:00:37.917Z,92.79
2023-03-26T05:01:38.067Z,93.71
2023-03-26T05:02:37.990Z,93.30
2023-03-26T05:03:37.871Z,93.36
2023-03-26T05:04:37.904Z,93.71
2023-03-26T05:05:37.864Z,93.51
2023-03-26T05:06:37.858Z,93.71
2023-03-26T05:07:37.842Z,93.82
2023-03-26T05:08:37.871Z,93.61
2023-03-26T05:09:37.809Z,94.07
2023-03-26T05:10:37.816Z,93.76
2023-03-26T05:11:37.795Z,94.17
2023-03-26T05:12:37.778Z,93.65
2023-03-26T05:13:37.767Z,93.65
2023-03-26T05:14:37.804Z,94.48
2023-03-26T05:15:37.769Z,94.68
2023-03-26T05:16:37.748Z,94.07
2023-03-26T05:17:37.743Z,94.37
2023-03-26T05:18:37.715Z,93.86
2023-03-26T05:19:37.724Z,94.68
2023-03-26T05:20:37.719Z,94.48
2023-03-26T05:21:37.674Z,94.37
2023-03-26T05:22:38.277Z,94.27
2023-03-26T05:23:37.700Z,94.17
2023-03-26T05:24:37.659Z,93.71
2023-03-26T05:25:37.637Z,93.86
2023-03-26T05:26:37.674Z,93.92
2023-03-26T05:27:37.607Z,94.02
2023-03-26T05:28:37.617Z,94.17
2023-03-26T05:29:37.600Z,94.12
2023-03-26T05:30:37.607Z,94.02
2023-03-26T05:31:37.589Z,94.02
2023-03-26T05:32:37.688Z,93.92
2023-03-26T05:33:37.667Z,93.92
2023-03-26T05:34:37.539Z,93.86
2023-03-26T05:35:37.619Z,94.37
2023-03-26T05:36:37.539Z,94.58
2023-03-26T05:37:37.513Z,94.68
2023-03-26T05:38:37.503Z,94.33
2023-03-26T05:39:37.522Z,94.58
2023-03-26T05:40:37.634Z,94.37
2023-03-26T05:41:37.499Z,93.92
2023-03-26T05:42:37.475Z,94.43
2023-03-26T05:43:37.465Z,94.33
2023-03-26T05:44:37.450Z,94.02
2023-03-26T05:45:37.420Z,94.23
2023-03-26T05:46:37.413Z,93.71
2023-03-26T05:47:37.468Z,94.64
2023-03-26T05:48:37.393Z,94.33
2023-03-26T05:49:37.373Z,93.92
2023-03-26T05:50:37.386Z,94.12
2023-03-26T05:51:37.376Z,94.33
2023-03-26T05:52:37.345Z,94.23
2023-03-26T05:53:37.332Z,94.74
2023-03-26T05:54:37.374Z,94.33
2023-03-26T05:55:37.318Z,94.12
2023-03-26T05:56:37.630Z,93.92
2023-03-26T05:57:37.283Z,94.43
2023-03-26T05:58:37.277Z,94.64
2023-03-26T05:59:37.267Z,94.33
2023-03-26T06:00:37.275Z,94.74
2023-03-26T06:01:37.242Z,94.54
2023-03-26T06:02:37.308Z,94.33
2023-03-26T06:03:37.355Z,94.43
2023-03-26T06:04:37.265Z,94.12
2023-03-26T06:05:37.212Z,94.43
2023-03-26T06:06:37.196Z,94.74
2023-03-26T06:07:37.199Z,94.33
2023-03-26T06:08:37.188Z,94.23
2023-03-26T06:09:37.153Z,94.02
2023-03-26T06:10:37.157Z,94.95
2023-03-26T06:11:37.160Z,94.64
2023-03-26T06:12:37.146Z,94.54
2023-03-26T06:13:37.152Z,95.15
2023-03-26T06:14:37.124Z,95.25
2023-03-26T06:15:37.121Z,94.99
2023-03-26T06:16:37.239Z,94.95
2023-03-26T06:17:37.138Z,95.50
2023-03-26T06:18:37.136Z,96.12
2023-03-26T06:19:37.064Z,96.33
2023-03-26T06:20:37.064Z,96.02
2023-03-26T06:21:37.033Z,96.43
2023-03-26T06:22:37.015Z,96.43
2023-03-26T06:23:37.017Z,96.73
2023-03-26T06:24:36.996Z,96.43
2023-03-26T06:25:37.000Z,96.73
2023-03-26T06:26:36.993Z,96.53
2023-03-26T06:27:36.961Z,96.43
2023-03-26T06:28:37.140Z,96.64
2023-03-26T06:29:36.941Z,96.43
2023-03-26T06:30:36.954Z,96.33
2023-03-26T06:31:36.995Z,96.33
2023-03-26T06:32:36.972Z,97.25
2023-03-26T06:33:36.894Z,96.94
2023-03-26T06:34:36.884Z,96.94
2023-03-26T06:35:36.940Z,97.36
2023-03-26T06:36:36.866Z,97.56
2023-03-26T06:37:36.851Z,97.66
2023-03-26T06:38:36.865Z,97.45
2023-03-26T06:39:36.857Z,97.77
2023-03-26T06:40:36.824Z,97.77
2023-03-26T06:41:36.818Z,97.77
2023-03-26T06:43:09.271Z,97.66
2023-03-26T06:43:37.785Z,97.61
2023-03-26T06:44:36.816Z,97.77
2023-03-26T06:45:36.770Z,97.36
2023-03-26T06:46:36.806Z,97.97
2023-03-26T06:47:36.810Z,97.66
2023-03-26T06:48:36.859Z,97.66
2023-03-26T06:49:36.724Z,98.18
2023-03-26T06:50:36.724Z,97.66
2023-03-26T06:51:36.728Z,97.87
2023-03-26T06:52:36.696Z,97.56
2023-03-26T06:53:36.683Z,97.45
2023-03-26T06:54:36.701Z,97.50
2023-03-26T06:55:36.661Z,97.66
2023-03-26T06:56:36.694Z,97.91
2023-03-26T06:57:36.636Z,98.33
2023-03-26T06:58:36.626Z,98.38
2023-03-26T06:59:36.641Z,98.79
2023-03-26T07:00:36.620Z,98.90
2023-03-26T07:01:36.646Z,98.38
2023-03-26T07:02:36.638Z,98.79
2023-03-26T07:03:36.570Z,98.79
2023-03-26T07:04:36.582Z,98.69
2023-03-26T07:05:36.557Z,98.38
2023-03-26T07:06:36.540Z,98.49
2023-03-26T07:07:36.531Z,98.69
2023-03-26T07:08:37.542Z,98.69
2023-03-26T07:09:36.511Z,98.69
2023-03-26T07:10:36.516Z,98.65
2023-03-26T07:11:36.502Z,98.90
2023-03-26T07:12:36.485Z,98.75
2023-03-26T07:13:36.472Z,98.33
2023-03-26T07:14:36.475Z,98.65
2023-03-26T07:15:36.446Z,98.49
2023-03-26T07:16:36.478Z,98.38
2023-03-26T07:17:36.485Z,98.59
2023-03-26T07:18:36.420Z,98.69
2023-03-26T07:19:36.410Z,98.69
2023-03-26T07:20:36.484Z,98.69
2023-03-26T07:21:36.412Z,98.69
2023-03-26T07:22:36.397Z,98.69
2023-03-26T07:23:36.381Z,98.75
2023-03-26T07:24:36.383Z,98.90
2023-03-26T07:25:36.392Z,98.90
2023-03-26T07:26:36.330Z,98.79
2023-03-26T07:27:36.391Z,98.75
2023-03-26T07:28:36.316Z,98.65
2023-03-26T07:29:36.294Z,98.85
2023-03-26T07:30:36.297Z,98.33
2023-03-26T07:31:36.343Z,98.75
2023-03-26T07:32:36.297Z,97.82
2023-03-26T07:33:36.276Z,97.92
2023-03-26T07:34:36.245Z,98.07
2023-03-26T07:35:36.267Z,98.24
2023-03-26T07:36:36.260Z,98.33
2023-03-26T07:37:36.204Z,98.07
2023-03-26T07:38:36.208Z,98.13
2023-03-26T07:39:36.178Z,98.07
2023-03-26T07:40:36.248Z,98.18
2023-03-26T07:41:36.181Z,98.03
2023-03-26T07:42:36.166Z,98.65
2023-03-26T07:43:36.175Z,98.38
2023-03-26T07:44:36.138Z,98.59
2023-03-26T07:45:36.161Z,98.38
2023-03-26T07:46:36.111Z,98.75
2023-03-26T07:47:36.129Z,98.79
2023-03-26T07:48:36.121Z,98.54
2023-03-26T07:49:36.069Z,98.69
2023-03-26T07:50:36.064Z,98.54
2023-03-26T07:51:36.056Z,98.49
2023-03-26T07:52:36.070Z,98.90
2023-03-26T07:53:36.046Z,99.21
2023-03-26T07:54:36.047Z,98.85
2023-03-26T07:55:36.026Z,99.16
2023-03-26T07:56:36.141Z,99.10
2023-03-26T07:57:36.076Z,98.65
2023-03-26T07:58:35.998Z,98.69
2023-03-26T07:59:36.110Z,99.00
2023-03-26T08:00:35.968Z,98.90
2023-03-26T08:01:36.015Z,98.69
2023-03-26T08:02:35.963Z,98.96
2023-03-26T08:03:36.026Z,98.69
2023-03-26T08:04:36.090Z,99.05
2023-03-26T08:05:35.896Z,99.31
2023-03-26T08:06:35.909Z,98.96
2023-03-26T08:07:35.877Z,99.10
2023-03-26T08:08:35.914Z,99.10
2023-03-26T08:09:35.860Z,99.10
2023-03-26T08:10:35.865Z,99.41
2023-03-26T08:11:35.844Z,99.00
2023-03-26T08:12:35.841Z,99.21
2023-03-26T08:13:35.834Z,99.16
2023-03-26T08:14:35.804Z,98.85
2023-03-26T08:15:35.840Z,99.16
2023-03-26T08:16:35.786Z,99.16
2023-03-26T08:17:35.798Z,99.26
2023-03-26T08:18:35.794Z,99.05
2023-03-26T08:19:35.739Z,98.85
2023-03-26T08:20:35.759Z,98.85
2023-03-26T08:21:35.742Z,99.37
2023-03-26T08:22:35.711Z,99.37
2023-03-26T08:23:35.723Z,99.37
2023-03-26T08:24:36.762Z,99.31
2023-03-26T08:25:37.979Z,99.31
2023-03-26T08:26:35.678Z,99.05
2023-03-26T08:27:35.654Z,99.26
2023-03-26T08:28:35.675Z,99.00
2023-03-26T08:29:35.633Z,99.05
2023-03-26T08:30:35.731Z,99.00
2023-03-26T08:31:35.675Z,98.96
2023-03-26T08:32:35.625Z,98.90
2023-03-26T08:33:37.767Z,99.21
2023-03-26T08:34:35.592Z,99.00
2023-03-26T08:35:35.701Z,98.96
2023-03-26T08:36:35.632Z,99.05
2023-03-26T08:37:35.551Z,98.49
2023-03-26T08:38:35.562Z,98.44
2023-03-26T08:39:35.558Z,98.85
2023-03-26T08:40:35.568Z,97.92
2023-03-26T08:41:35.516Z,97.66
2023-03-26T08:42:35.522Z,98.38
2023-03-26T08:43:35.486Z,98.38
2023-03-26T08:44:35.516Z,98.18
2023-03-26T08:45:35.529Z,98.03
2023-03-26T08:46:35.516Z,97.87
2023-03-26T08:47:35.474Z,97.87
2023-03-26T08:48:35.436Z,97.45
2023-03-26T08:49:35.445Z,97.87
2023-03-26T08:50:35.409Z,97.36
2023-03-26T08:51:35.407Z,97.77
2023-03-26T08:52:35.431Z,97.77
2023-03-26T08:53:35.366Z,97.77
2023-03-26T08:54:35.362Z,97.77
2023-03-26T08:55:35.388Z,97.45
2023-03-26T08:56:35.394Z,97.45
2023-03-26T08:57:35.325Z,97.36
2023-03-26T08:58:35.346Z,98.07
2023-03-26T08:59:35.304Z,97.56
2023-03-26T09:00:35.305Z,97.05
2023-03-26T09:01:35.354Z,97.45
2023-03-26T09:02:35.340Z,97.56
2023-03-26T09:03:35.319Z,97.56
2023-03-26T09:04:35.259Z,97.05
2023-03-26T09:05:35.261Z,96.84
2023-03-26T09:06:35.232Z,97.05
2023-03-26T09:07:35.234Z,97.45
2023-03-26T09:08:35.234Z,97.56
2023-03-26T09:09:35.226Z,97.45
2023-03-26T09:10:35.187Z,97.97
2023-03-26T09:11:35.176Z,97.97
2023-03-26T09:12:35.166Z,97.45
2023-03-26T09:13:35.179Z,97.50
2023-03-26T09:14:35.168Z,98.07
2023-03-26T09:15:35.137Z,97.40
2023-03-26T09:16:35.180Z,97.77
2023-03-26T09:17:35.214Z,98.28
2023-03-26T09:18:35.103Z,98.43
2023-03-26T09:19:35.103Z,98.38
2023-03-26T09:20:35.146Z,98.59
2023-03-26T09:21:35.078Z,97.56
2023-03-26T09:22:35.077Z,97.97
2023-03-26T09:23:35.065Z,97.56
2023-03-26T09:24:35.052Z,97.87
2023-03-26T09:25:35.056Z,97.45
2023-03-26T09:26:35.049Z,96.53
2023-03-26T09:27:35.028Z,97.66
2023-03-26T09:28:35.010Z,97.05
2023-03-26T09:29:34.985Z,97.77
2023-03-26T09:30:35.008Z,97.52
2023-03-26T09:31:35.061Z,97.52
2023-03-26T09:32:34.997Z,97.52
2023-03-26T09:33:34.960Z,97.37
2023-03-26T09:34:34.929Z,97.20
2023-03-26T09:35:34.954Z,97.10
2023-03-26T09:36:34.936Z,96.65
2023-03-26T09:37:34.936Z,96.95
2023-03-26T09:38:34.958Z,97.06
2023-03-26T09:39:34.879Z,97.16
2023-03-26T09:40:34.915Z,96.55
2023-03-26T09:41:34.854Z,96.14
2023-03-26T09:42:34.841Z,96.60
2023-03-26T09:43:34.858Z,96.44
2023-03-26T09:44:34.839Z,96.34
2023-03-26T09:45:34.833Z,96.34
2023-03-26T09:46:34.794Z,96.65
2023-03-26T09:47:34.874Z,96.14
2023-03-26T09:48:34.789Z,96.50
2023-03-26T09:49:34.803Z,96.19
2023-03-26T09:50:34.768Z,96.40
2023-03-26T09:51:34.751Z,97.12
2023-03-26T09:52:34.753Z,96.44
2023-03-26T09:53:34.733Z,96.30
2023-03-26T09:54:34.764Z,96.40
2023-03-26T09:55:34.750Z,95.98
2023-03-26T09:56:34.721Z,96.40
2023-03-26T09:57:34.741Z,95.47
2023-03-26T09:58:34.673Z,95.89
2023-03-26T09:59:34.660Z,95.06
2023-03-26T10:00:34.659Z,94.81
2023-03-26T10:01:34.725Z,94.71
2023-03-26T10:02:45.912Z,94.40
2023-03-26T10:03:35.634Z,93.89
2023-03-26T10:04:34.642Z,93.48
2023-03-26T10:05:34.606Z,94.20
2023-03-26T10:06:34.593Z,95.02
2023-03-26T10:07:34.572Z,94.71
2023-03-26T10:08:34.620Z,94.51
2023-03-26T10:09:34.565Z,94.92
2023-03-26T10:10:34.551Z,94.40
2023-03-26T10:11:34.532Z,94.71
2023-03-26T10:12:34.673Z,94.71
2023-03-26T10:13:34.525Z,94.81
2023-03-26T10:14:34.511Z,95.02
2023-03-26T10:15:34.496Z,95.06
2023-03-26T10:16:34.514Z,94.04
2023-03-26T10:17:34.489Z,94.55
2023-03-26T10:18:34.477Z,94.76
2023-03-26T10:19:34.441Z,94.96
2023-03-26T10:20:34.428Z,94.55
2023-03-26T10:21:34.460Z,94.34
2023-03-26T10:22:34.411Z,94.55
2023-03-26T10:23:34.395Z,94.55
2023-03-26T10:24:34.400Z,95.27
2023-03-26T10:25:34.382Z,95.98
2023-03-26T10:26:34.366Z,95.78
2023-03-26T10:27:34.459Z,95.78
2023-03-26T10:28:34.361Z,94.96
2023-03-26T10:29:34.334Z,95.27
2023-03-26T10:30:34.407Z,95.37
2023-03-26T10:31:34.336Z,95.17
2023-03-26T10:32:34.309Z,94.55
2023-03-26T10:33:34.307Z,94.55
2023-03-26T10:34:34.306Z,94.96
2023-03-26T10:35:34.335Z,95.62
2023-03-26T10:36:34.296Z,95.98
2023-03-26T10:37:34.258Z,95.98
2023-03-26T10:38:34.237Z,95.83
2023-03-26T10:39:37.326Z,95.83
2023-03-26T10:40:35.211Z,95.98
2023-03-26T10:41:34.265Z,95.57
2023-03-26T10:42:34.202Z,96.03
2023-03-26T10:43:34.191Z,96.60
2023-03-26T10:44:34.181Z,95.93
2023-03-26T10:45:34.198Z,95.93
2023-03-26T10:46:34.225Z,96.50
2023-03-26T10:47:34.225Z,96.09
2023-03-26T10:48:34.128Z,96.91
2023-03-26T10:49:34.114Z,96.77
2023-03-26T10:50:34.125Z,97.22
2023-03-26T10:51:34.128Z,96.19
2023-03-26T10:52:34.080Z,96.60
2023-03-26T10:53:34.107Z,96.09
2023-03-26T10:54:34.087Z,96.40
2023-03-26T10:55:34.058Z,96.30
2023-03-26T10:56:34.060Z,96.70
2023-03-26T10:57:34.040Z,96.81
2023-03-26T10:58:49.854Z,97.02
2023-03-26T10:59:35.037Z,97.12
2023-03-26T11:00:34.014Z,97.48
2023-03-26T11:01:34.025Z,97.17
2023-03-26T11:02:34.016Z,96.66
2023-03-26T11:03:33.986Z,97.07
2023-03-26T11:04:33.955Z,97.38
2023-03-26T11:05:34.019Z,97.69
2023-03-26T11:06:33.971Z,97.69
2023-03-26T11:07:33.948Z,97.33
2023-03-26T11:08:33.939Z,97.58
2023-03-26T11:09:33.904Z,97.44
2023-03-26T11:10:33.925Z,97.54
2023-03-26T11:11:33.903Z,97.38
2023-03-26T11:12:33.876Z,98.36
2023-03-26T11:13:33.863Z,97.99
2023-03-26T11:14:35.105Z,98.41
2023-03-26T11:15:33.871Z,98.20
2023-03-26T11:16:33.872Z,97.89
2023-03-26T11:17:40.107Z,98.25
2023-03-26T11:18:34.804Z,98.41
2023-03-26T11:19:33.850Z,98.57
2023-03-26T11:20:33.812Z,98.61
2023-03-26T11:21:33.781Z,97.99
2023-03-26T11:22:33.780Z,97.95
2023-03-26T11:23:33.806Z,98.61
2023-03-26T11:24:33.792Z,98.61
2023-03-26T11:25:33.740Z,98.51
2023-03-26T11:26:33.740Z,98.25
2023-03-26T11:27:33.720Z,98.16
2023-03-26T11:28:33.698Z,98.25
2023-03-26T11:29:33.800Z,98.25
2023-03-26T11:30:33.692Z,98.30
2023-03-26T11:31:33.728Z,98.10
2023-03-26T11:32:33.704Z,97.99
2023-03-26T11:33:33.655Z,98.71
2023-03-26T11:34:33.637Z,98.20
2023-03-26T11:35:39.379Z,98.20
2023-03-26T11:36:34.612Z,98.10
2023-03-26T11:37:33.619Z,98.82
2023-03-26T11:38:33.626Z,99.12
2023-03-26T11:39:33.591Z,98.82
2023-03-26T11:40:33.580Z,98.92
2023-03-26T11:41:33.667Z,99.22
2023-03-26T11:42:33.574Z,98.71
2023-03-26T11:43:33.570Z,98.71
2023-03-26T11:44:33.570Z,98.82
2023-03-26T11:45:33.528Z,99.22
2023-03-26T11:46:33.869Z,99.02
2023-03-26T11:47:33.585Z,98.61
2023-03-26T11:48:33.571Z,98.92
2023-03-26T11:49:33.529Z,99.02
2023-03-26T11:50:33.481Z,99.22
2023-03-26T11:51:33.663Z,99.22
2023-03-26T11:52:33.488Z,99.90
2023-03-26T11:53:33.456Z,99.74
2023-03-26T11:54:33.465Z,99.49
2023-03-26T11:55:33.619Z,98.92
2023-03-26T11:56:33.511Z,99.02
2023-03-26T11:57:34.063Z,98.82
2023-03-26T11:58:33.397Z,99.12
2023-03-26T11:59:39.219Z,98.55
2023-03-26T12:00:34.362Z,97.69
2023-03-26T12:01:33.434Z,97.83
2023-03-26T12:02:33.556Z,96.81
2023-03-26T12:03:33.380Z,96.50
2023-03-26T12:04:34.069Z,95.89
2023-03-26T12:05:33.406Z,96.40
2023-03-26T12:06:33.294Z,96.44
2023-03-26T12:07:33.319Z,97.32
2023-03-26T12:08:33.292Z,97.53
2023-03-26T12:09:33.305Z,97.53
2023-03-26T12:10:33.275Z,97.53
2023-03-26T12:11:35.101Z,98.25
2023-03-26T12:12:33.295Z,97.78
2023-03-26T12:13:33.246Z,97.94
2023-03-26T12:14:33.230Z,98.66
2023-03-26T12:15:33.214Z,98.55
2023-03-26T12:16:33.219Z,98.14
2023-03-26T12:17:33.223Z,98.35
2023-03-26T12:18:33.187Z,98.55
2023-03-26T12:19:33.217Z,98.45
2023-03-26T12:20:33.174Z,98.86
2023-03-26T12:21:33.185Z,98.76
2023-03-26T12:22:33.120Z,99.38
2023-03-26T12:23:33.118Z,98.55
2023-03-26T12:24:33.111Z,98.80
2023-03-26T12:25:33.120Z,98.55
2023-03-26T12:26:33.066Z,98.45
2023-03-26T12:27:33.075Z,98.29
2023-03-26T12:28:33.052Z,99.21
2023-03-26T12:29:33.108Z,98.86
2023-03-26T12:30:33.097Z,98.76
2023-03-26T12:31:33.195Z,99.17
2023-03-26T12:32:43.210Z,98.50
2023-03-26T12:33:34.135Z,98.45
2023-03-26T12:34:33.019Z,98.35
2023-03-26T12:35:33.004Z,98.39
2023-03-26T12:36:33.132Z,97.94
2023-03-26T12:37:32.980Z,98.25
2023-03-26T12:38:32.961Z,97.63
2023-03-26T12:40:08.609Z,97.42
2023-03-26T12:40:33.951Z,97.47
2023-03-26T12:44:43.455Z,96.40
2023-03-26T12:44:49.131Z,97.32
2023-03-26T12:44:52.874Z,97.32
2023-03-26T12:44:53.414Z,97.32
2023-03-26T12:45:33.268Z,97.02
2023-03-26T12:47:46.202Z,96.81
2023-03-26T12:47:58.100Z,96.81
2023-03-26T12:48:33.880Z,96.40
2023-03-26T12:49:32.875Z,96.60
2023-03-26T12:50:34.333Z,96.70
2023-03-26T12:51:32.815Z,96.30
2023-03-26T12:52:32.894Z,95.89